Time;durP1;ratioP1;P1;durP2;ratioP2;P2;SDS_P1;SDS_P2;PMS_P1;PMS_P2;Temp;Humidity;BMP_temperature;BMP_pressure;BME280_temperature;BME280_humidity;BME280_pressure;Samples;Min_cycle;Max_cycle;Signal;HPM_P1;HPM_P2
2024/03/22 00:00:16;;;;;;;23.83;11.10;;;;;;;;;;4924134;29;20199;-88
2024/03/22 00:03:22;;;;;;;21.83;11.13;;;;;;;;;;4925787;29;20275;-89
2024/03/22 00:06:27;;;;;;;20.48;10.77;;;;;;;;;;4924220;29;20192;-88
2024/03/22 00:09:32;;;;;;;19.75;10.77;;;;;;;;;;4926121;29;20196;-86
2024/03/22 00:12:40;;;;;;;21.40;10.57;;;;;;;;;;4927778;28;20289;-90
2024/03/22 00:15:46;;;;;;;26.65;10.75;;;;;;;;;;4940220;28;20199;-89
2024/03/22 00:18:53;;;;;;;19.90;10.93;;;;;;;;;;4929456;29;20180;-89
2024/03/22 00:21:58;;;;;;;18.42;9.98;;;;;;;;;;4940114;29;20216;-90
2024/03/22 00:25:02;;;;;;;22.65;10.70;;;;;;;;;;4930038;29;20232;-88
2024/03/22 00:28:08;;;;;;;19.67;10.43;;;;;;;;;;4930167;28;20224;-89
2024/03/22 00:31:13;;;;;;;20.20;11.02;;;;;;;;;;4930017;28;20268;-89
2024/03/22 00:34:20;;;;;;;19.35;11.02;;;;;;;;;;4933113;29;20263;-88
2024/03/22 00:37:25;;;;;;;18.77;10.13;;;;;;;;;;4948587;28;20187;-88
2024/03/22 00:40:30;;;;;;;18.15;10.43;;;;;;;;;;4948470;28;20187;-89
2024/03/22 00:43:35;;;;;;;28.35;12.07;;;;;;;;;;4948802;29;20286;-89
2024/03/22 00:46:41;;;;;;;23.08;11.05;;;;;;;;;;4948217;28;20195;-89
2024/03/22 00:49:46;;;;;;;21.50;11.35;;;;;;;;;;4948099;28;20188;-90
2024/03/22 00:52:52;;;;;;;21.70;11.43;;;;;;;;;;4948450;28;20223;-88
2024/03/22 00:55:59;;;;;;;22.15;10.88;;;;;;;;;;4930144;29;20227;-90
2024/03/22 00:59:02;;;;;;;29.20;12.97;;;;;;;;;;4929444;29;20199;-91
2024/03/22 01:02:08;;;;;;;30.95;14.00;;;;;;;;;;4928817;29;20245;-91
2024/03/22 01:05:14;;;;;;;21.53;10.87;;;;;;;;;;4928293;29;20256;-91
2024/03/22 01:08:19;;;;;;;23.10;11.27;;;;;;;;;;4926963;29;20207;-87
2024/03/22 01:11:23;;;;;;;26.37;12.47;;;;;;;;;;4928299;29;20745;-88
2024/03/22 01:14:28;;;;;;;32.13;14.47;;;;;;;;;;4927622;29;20207;-88
2024/03/22 01:17:32;;;;;;;42.20;18.23;;;;;;;;;;4929515;28;20278;-89
2024/03/22 01:20:39;;;;;;;30.95;13.45;;;;;;;;;;4929302;29;20183;-91
2024/03/22 01:23:44;;;;;;;26.77;13.38;;;;;;;;;;4927625;28;20235;-86
2024/03/22 01:26:48;;;;;;;33.85;15.50;;;;;;;;;;4936612;29;20219;-86
2024/03/22 01:29:53;;;;;;;28.15;12.57;;;;;;;;;;4927853;29;20252;-89
2024/03/22 01:32:57;;;;;;;30.90;14.50;;;;;;;;;;4927195;29;20328;-89
2024/03/22 01:36:05;;;;;;;26.43;14.17;;;;;;;;;;4929355;28;20176;-89
2024/03/22 01:39:09;;;;;;;29.63;14.03;;;;;;;;;;4928052;28;20254;-89
2024/03/22 01:42:14;;;;;;;28.50;14.27;;;;;;;;;;4929369;28;20183;-91
2024/03/22 01:45:19;;;;;;;43.77;17.07;;;;;;;;;;4943518;28;20227;-89
2024/03/22 01:48:25;;;;;;;35.93;16.57;;;;;;;;;;4947801;29;20198;-89
2024/03/22 01:51:30;;;;;;;33.47;15.27;;;;;;;;;;4947362;28;20199;-90
2024/03/22 01:54:36;;;;;;;28.77;14.33;;;;;;;;;;4947755;28;20301;-90
2024/03/22 01:57:40;;;;;;;26.93;13.30;;;;;;;;;;4947155;28;20207;-88
2024/03/22 02:00:48;;;;;;;28.73;13.63;;;;;;;;;;4947406;29;20214;-88
2024/03/22 02:03:52;;;;;;;30.63;15.23;;;;;;;;;;4945087;28;20702;-89
2024/03/22 02:06:59;;;;;;;28.55;14.80;;;;;;;;;;4927429;29;20196;-87
2024/03/22 02:10:04;;;;;;;38.23;14.70;;;;;;;;;;4927779;29;20204;-89
2024/03/22 02:13:09;;;;;;;33.13;15.63;;;;;;;;;;4928439;29;20232;-89
2024/03/22 02:16:13;;;;;;;52.28;15.13;;;;;;;;;;4927084;28;20578;-88
2024/03/22 02:19:18;;;;;;;41.25;14.82;;;;;;;;;;4927833;28;20220;-89
2024/03/22 02:22:24;;;;;;;62.35;16.85;;;;;;;;;;4927282;29;20188;-89
2024/03/22 02:25:30;;;;;;;90.93;17.67;;;;;;;;;;4927993;28;20360;-89
2024/03/22 02:28:40;;;;;;;35.92;13.93;;;;;;;;;;4925850;29;20711;-89
2024/03/22 02:31:44;;;;;;;60.17;15.05;;;;;;;;;;4933018;28;20203;-90
2024/03/22 02:34:50;;;;;;;91.37;15.43;;;;;;;;;;4946468;28;20175;-89
2024/03/22 02:37:54;;;;;;;89.73;16.10;;;;;;;;;;4946196;28;20321;-92
2024/03/22 02:41:00;;;;;;;69.57;15.83;;;;;;;;;;4946000;28;20717;-87
2024/03/22 02:44:04;;;;;;;86.80;16.00;;;;;;;;;;4946601;28;20581;-89
2024/03/22 02:47:10;;;;;;;98.63;15.90;;;;;;;;;;4946219;28;20186;-88
2024/03/22 02:50:14;;;;;;;115.32;17.48;;;;;;;;;;4949580;29;20195;-89
2024/03/22 02:53:19;;;;;;;107.07;17.05;;;;;;;;;;4927024;29;20221;-88
2024/03/22 02:56:25;;;;;;;93.20;16.30;;;;;;;;;;4926018;28;20573;-88
2024/03/22 02:59:30;;;;;;;79.17;16.73;;;;;;;;;;4925030;29;20254;-92
2024/03/22 03:02:34;;;;;;;168.80;16.93;;;;;;;;;;4924061;28;20184;-89
2024/03/22 03:05:41;;;;;;;124.80;17.03;;;;;;;;;;4924193;29;20247;-90
2024/03/22 03:08:46;;;;;;;179.10;17.67;;;;;;;;;;4926188;28;20184;-89
2024/03/22 03:11:55;;;;;;;124.47;15.90;;;;;;;;;;4934657;28;20191;-89
2024/03/22 03:15:00;;;;;;;159.33;17.27;;;;;;;;;;4946892;28;20269;-88
2024/03/22 03:18:05;;;;;;;116.10;17.33;;;;;;;;;;4952903;28;20638;-90
2024/03/22 03:21:10;;;;;;;66.83;15.90;;;;;;;;;;4944114;29;20190;-89
2024/03/22 03:24:15;;;;;;;156.30;17.03;;;;;;;;;;4945022;29;20235;-89
2024/03/22 03:27:21;;;;;;;68.90;16.10;;;;;;;;;;4945751;28;20570;-89
2024/03/22 03:30:26;;;;;;;61.50;15.13;;;;;;;;;;4946066;28;20861;-89
2024/03/22 03:33:31;;;;;;;64.03;16.30;;;;;;;;;;4926805;28;20195;-91
2024/03/22 03:36:36;;;;;;;34.67;14.83;;;;;;;;;;4936133;29;20188;-88
2024/03/22 03:39:41;;;;;;;34.93;14.43;;;;;;;;;;4937279;28;20203;-89
2024/03/22 03:42:48;;;;;;;31.52;14.27;;;;;;;;;;4937123;28;20183;-89
2024/03/22 03:45:54;;;;;;;30.93;14.40;;;;;;;;;;4938299;28;20223;-91
2024/03/22 03:48:59;;;;;;;26.10;13.50;;;;;;;;;;4928567;28;20639;-91
2024/03/22 03:52:04;;;;;;;26.87;13.00;;;;;;;;;;4941036;29;20208;-89
2024/03/22 03:55:09;;;;;;;29.20;13.37;;;;;;;;;;4941559;28;20716;-89
2024/03/22 03:58:16;;;;;;;27.70;12.43;;;;;;;;;;4941830;29;20214;-87
2024/03/22 04:01:22;;;;;;;22.48;11.82;;;;;;;;;;4942083;29;20192;-89
2024/03/22 04:04:26;;;;;;;27.57;12.73;;;;;;;;;;4940866;28;20683;-89
2024/03/22 04:07:32;;;;;;;29.97;13.00;;;;;;;;;;4940884;28;20200;-88
2024/03/22 04:10:37;;;;;;;31.80;13.68;;;;;;;;;;4931083;28;20176;-90
2024/03/22 04:13:43;;;;;;;42.80;14.40;;;;;;;;;;4942437;28;20243;-90
2024/03/22 04:16:49;;;;;;;37.00;14.90;;;;;;;;;;4942045;28;20559;-89
2024/03/22 04:19:53;;;;;;;38.53;15.32;;;;;;;;;;4929050;28;20777;-90
2024/03/22 04:22:59;;;;;;;70.57;16.83;;;;;;;;;;4940594;28;20196;-90
2024/03/22 04:26:03;;;;;;;37.90;15.82;;;;;;;;;;4949844;28;20263;-88
2024/03/22 04:29:10;;;;;;;42.30;17.05;;;;;;;;;;4949219;28;20190;-90
2024/03/22 04:32:13;;;;;;;55.15;17.05;;;;;;;;;;4949429;28;20663;-90
2024/03/22 04:35:18;;;;;;;75.38;17.75;;;;;;;;;;4949174;29;20199;-89
2024/03/22 04:38:23;;;;;;;46.60;17.83;;;;;;;;;;4948571;28;20215;-91
2024/03/22 04:41:28;;;;;;;47.07;18.30;;;;;;;;;;4957579;29;20553;-89
2024/03/22 04:44:34;;;;;;;55.30;17.93;;;;;;;;;;4948269;28;20219;-89
2024/03/22 04:47:40;;;;;;;85.03;18.53;;;;;;;;;;4948396;28;20262;-91
2024/03/22 04:50:47;;;;;;;59.78;19.15;;;;;;;;;;4945184;28;20184;-89
2024/03/22 04:53:51;;;;;;;53.10;20.15;;;;;;;;;;4929633;28;20196;-89
2024/03/22 04:56:57;;;;;;;81.00;20.53;;;;;;;;;;4928663;29;20212;-89
2024/03/22 05:00:03;;;;;;;80.22;22.08;;;;;;;;;;4928278;28;20207;-87
2024/03/22 05:03:08;;;;;;;66.60;23.77;;;;;;;;;;4929041;29;20200;-89
2024/03/22 05:06:12;;;;;;;55.87;23.83;;;;;;;;;;4939339;29;20253;-87
2024/03/22 05:09:17;;;;;;;105.43;24.60;;;;;;;;;;4928116;28;20305;-88
2024/03/22 05:12:21;;;;;;;71.77;21.47;;;;;;;;;;4939147;28;20284;-88
2024/03/22 05:15:28;;;;;;;97.03;24.07;;;;;;;;;;4937997;28;20296;-88
2024/03/22 05:18:33;;;;;;;64.30;24.33;;;;;;;;;;4937852;28;20289;-89
2024/03/22 05:21:37;;;;;;;67.43;24.95;;;;;;;;;;4939596;28;20200;-88
2024/03/22 05:24:42;;;;;;;68.30;23.58;;;;;;;;;;4929068;28;20253;-87
2024/03/22 05:27:47;;;;;;;60.60;24.98;;;;;;;;;;4928444;29;20789;-90
2024/03/22 05:30:54;;;;;;;56.50;24.17;;;;;;;;;;4927100;29;20266;-88
2024/03/22 05:33:59;;;;;;;59.10;24.17;;;;;;;;;;4927406;28;20196;-91
2024/03/22 05:37:05;;;;;;;45.63;22.73;;;;;;;;;;4938809;29;20223;-87
2024/03/22 05:40:10;;;;;;;52.38;22.65;;;;;;;;;;4928965;28;20192;-90
2024/03/22 05:43:14;;;;;;;46.67;22.33;;;;;;;;;;4941435;28;20204;-88
2024/03/22 05:46:20;;;;;;;50.85;23.77;;;;;;;;;;4955918;29;20222;-89
2024/03/22 05:49:24;;;;;;;47.80;23.40;;;;;;;;;;4945595;29;20280;-89
2024/03/22 05:52:30;;;;;;;45.58;21.80;;;;;;;;;;4944510;29;20223;-88
2024/03/22 05:55:34;;;;;;;45.00;21.90;;;;;;;;;;4946032;29;20577;-86
2024/03/22 05:58:40;;;;;;;39.35;21.25;;;;;;;;;;4930124;28;20189;-89
2024/03/22 06:01:47;;;;;;;47.00;22.52;;;;;;;;;;4948519;29;20214;-88
2024/03/22 06:04:53;;;;;;;43.20;21.58;;;;;;;;;;4947720;29;20247;-88
2024/03/22 06:07:57;;;;;;;49.58;22.45;;;;;;;;;;4946236;29;20206;-89
2024/03/22 06:11:03;;;;;;;49.33;22.42;;;;;;;;;;4935039;29;20263;-87
2024/03/22 06:14:07;;;;;;;48.13;21.70;;;;;;;;;;4949321;28;20301;-90
2024/03/22 06:17:15;;;;;;;44.92;21.35;;;;;;;;;;4946119;28;20242;-88
2024/03/22 06:20:21;;;;;;;48.00;22.60;;;;;;;;;;4949221;28;20210;-88
2024/03/22 06:23:25;;;;;;;43.50;21.60;;;;;;;;;;4948375;28;20183;-90
2024/03/22 06:26:31;;;;;;;42.95;21.00;;;;;;;;;;4932578;28;20282;-89
2024/03/22 06:29:35;;;;;;;45.72;21.75;;;;;;;;;;4943958;28;20196;-88
2024/03/22 06:32:42;;;;;;;45.75;21.73;;;;;;;;;;4949488;29;20219;-89
2024/03/22 06:35:46;;;;;;;48.95;22.88;;;;;;;;;;4951102;29;20251;-90
2024/03/22 06:38:58;;;;;;;49.60;22.77;;;;;;;;;;4938608;28;20235;-87
2024/03/22 06:42:04;;;;;;;49.13;22.63;;;;;;;;;;4948927;28;20327;-88
2024/03/22 06:45:09;;;;;;;44.10;22.02;;;;;;;;;;4945067;28;20219;-90
2024/03/22 06:48:16;;;;;;;39.70;19.98;;;;;;;;;;4940823;28;20235;-89
2024/03/22 06:51:21;;;;;;;43.78;21.65;;;;;;;;;;4947056;28;20210;-89
2024/03/22 06:54:27;;;;;;;50.38;22.92;;;;;;;;;;4948222;29;20183;-88
2024/03/22 06:57:33;;;;;;;49.88;22.23;;;;;;;;;;4949204;29;20194;-89
2024/03/22 07:00:39;;;;;;;53.08;22.55;;;;;;;;;;4949405;28;20187;-89
2024/03/22 07:03:46;;;;;;;51.05;23.25;;;;;;;;;;4949288;28;20183;-90
2024/03/22 07:06:51;;;;;;;51.30;23.98;;;;;;;;;;4947453;29;20215;-89
2024/03/22 07:09:56;;;;;;;57.42;24.70;;;;;;;;;;4945714;29;20191;-89
2024/03/22 07:13:01;;;;;;;50.42;22.40;;;;;;;;;;4947148;29;20191;-89
2024/03/22 07:16:05;;;;;;;51.22;23.02;;;;;;;;;;4948400;28;20678;-87
2024/03/22 07:19:13;;;;;;;48.85;23.38;;;;;;;;;;4949581;28;20174;-87
2024/03/22 07:22:19;;;;;;;60.20;23.63;;;;;;;;;;4949117;28;20199;-90
2024/03/22 07:25:23;;;;;;;56.88;23.10;;;;;;;;;;4952049;28;20231;-91
2024/03/22 07:28:28;;;;;;;55.22;24.20;;;;;;;;;;4951911;29;20191;-90
2024/03/22 07:31:33;;;;;;;53.00;22.88;;;;;;;;;;4953662;28;20269;-89
2024/03/22 07:34:39;;;;;;;47.63;22.08;;;;;;;;;;4952964;28;20702;-89
2024/03/22 07:37:44;;;;;;;52.17;23.02;;;;;;;;;;4949891;29;20191;-91
2024/03/22 07:40:49;;;;;;;152.00;55.33;;;;;;;;;;4949759;28;20203;-86
2024/03/22 07:44:02;;;;;;;58.22;26.83;;;;;;;;;;4950357;29;20211;-85
2024/03/22 07:47:06;;;;;;;57.80;24.63;;;;;;;;;;4961676;28;20190;-92
2024/03/22 07:50:14;;;;;;;52.08;22.95;;;;;;;;;;4948778;29;20190;-89
2024/03/22 07:53:20;;;;;;;51.80;22.88;;;;;;;;;;4951129;29;20263;-88
2024/03/22 07:56:24;;;;;;;53.20;24.00;;;;;;;;;;4961970;28;20199;-89
2024/03/22 07:59:31;;;;;;;52.78;24.30;;;;;;;;;;4951592;29;20245;-89
2024/03/22 08:02:37;;;;;;;53.70;23.65;;;;;;;;;;4951480;28;20202;-91
2024/03/22 08:05:44;;;;;;;56.85;25.15;;;;;;;;;;4951143;29;20299;-89
2024/03/22 08:08:49;;;;;;;47.20;23.63;;;;;;;;;;4951604;28;20179;-91
2024/03/22 08:11:53;;;;;;;52.35;23.52;;;;;;;;;;4951086;29;20328;-88
2024/03/22 08:14:58;;;;;;;52.60;22.90;;;;;;;;;;4951163;29;20215;-89
2024/03/22 08:18:03;;;;;;;55.35;24.38;;;;;;;;;;4953443;28;20210;-88
2024/03/22 08:21:10;;;;;;;47.85;22.50;;;;;;;;;;4939263;28;20183;-90
2024/03/22 08:24:17;;;;;;;48.00;23.80;;;;;;;;;;4951072;29;20239;-89
2024/03/22 08:27:24;;;;;;;49.00;23.52;;;;;;;;;;4951695;28;20275;-88
2024/03/22 08:30:28;;;;;;;47.50;23.80;;;;;;;;;;4950828;29;20235;-89
2024/03/22 08:33:33;;;;;;;47.83;23.10;;;;;;;;;;4951271;28;20879;-88
2024/03/22 08:36:41;;;;;;;48.55;23.30;;;;;;;;;;4950925;29;20194;-91
2024/03/22 08:39:46;;;;;;;49.22;24.48;;;;;;;;;;4951414;29;20218;-89
2024/03/22 08:42:51;;;;;;;51.63;26.48;;;;;;;;;;4962161;28;20179;-89
2024/03/22 08:45:57;;;;;;;47.58;21.50;;;;;;;;;;4950649;29;20242;-91
2024/03/22 08:49:02;;;;;;;43.97;21.58;;;;;;;;;;4950697;29;20215;-87
2024/03/22 08:52:09;;;;;;;46.97;22.70;;;;;;;;;;4951523;29;20175;-89
2024/03/22 08:55:14;;;;;;;49.25;22.50;;;;;;;;;;4962219;29;20211;-89
2024/03/22 08:58:19;;;;;;;47.22;21.45;;;;;;;;;;4961337;29;20215;-87
2024/03/22 09:01:24;;;;;;;47.92;22.42;;;;;;;;;;4951591;29;20220;-89
2024/03/22 09:04:29;;;;;;;43.42;20.80;;;;;;;;;;4950849;28;20270;-87
2024/03/22 09:07:36;;;;;;;43.22;21.95;;;;;;;;;;4949335;29;20240;-89
2024/03/22 09:10:43;;;;;;;38.75;20.08;;;;;;;;;;4950319;28;20234;-90
2024/03/22 09:13:49;;;;;;;38.97;20.42;;;;;;;;;;4948257;28;20196;-89
2024/03/22 09:16:54;;;;;;;41.40;19.58;;;;;;;;;;4949134;28;20184;-87
2024/03/22 09:19:59;;;;;;;34.90;19.20;;;;;;;;;;4931223;29;20348;-90
2024/03/22 09:23:08;;;;;;;39.80;19.02;;;;;;;;;;4929592;28;20192;-89
2024/03/22 09:26:12;;;;;;;36.70;18.50;;;;;;;;;;4938666;29;20328;-89
2024/03/22 09:29:17;;;;;;;34.60;18.50;;;;;;;;;;4960857;28;20631;-90
2024/03/22 09:32:21;;;;;;;36.35;17.90;;;;;;;;;;4947209;28;20187;-92
2024/03/22 09:35:27;;;;;;;36.83;17.77;;;;;;;;;;4950236;29;20199;-90
2024/03/22 09:38:32;;;;;;;32.92;18.27;;;;;;;;;;4947006;29;20211;-88
2024/03/22 09:41:40;;;;;;;30.10;16.77;;;;;;;;;;4949490;29;20194;-89
2024/03/22 09:44:47;;;;;;;30.75;17.10;;;;;;;;;;4948035;29;20250;-89
2024/03/22 09:47:55;;;;;;;29.92;15.27;;;;;;;;;;4946134;29;20187;-90
2024/03/22 09:51:00;;;;;;;29.95;15.27;;;;;;;;;;4947453;29;20203;-90
2024/03/22 09:54:06;;;;;;;29.35;16.13;;;;;;;;;;4946205;29;20291;-88
2024/03/22 09:57:16;;;;;;;33.00;16.38;;;;;;;;;;4948221;28;20549;-92
2024/03/22 10:00:22;;;;;;;32.50;16.25;;;;;;;;;;4949997;28;20263;-91
2024/03/22 10:03:27;;;;;;;30.92;15.80;;;;;;;;;;4948027;29;20222;-90
2024/03/22 10:06:31;;;;;;;28.67;15.70;;;;;;;;;;4947598;28;20255;-89
2024/03/22 10:09:39;;;;;;;28.38;15.02;;;;;;;;;;4948023;28;20179;-90
2024/03/22 10:12:46;;;;;;;29.30;15.23;;;;;;;;;;4950953;28;20191;-90
2024/03/22 10:15:50;;;;;;;32.70;16.77;;;;;;;;;;4951311;29;20199;-92
2024/03/22 13:41:27;;;;;;;14.80;8.50;;;;;;;;;;5603809;23;20312;-91
2024/03/22 13:44:33;;;;;;;17.30;8.20;;;;;;;;;;4949987;28;20217;-92
2024/03/22 13:47:40;;;;;;;16.50;8.75;;;;;;;;;;4946544;28;20295;-90
2024/03/22 13:50:43;;;;;;;16.52;9.40;;;;;;;;;;4946137;29;20289;-90
2024/03/22 13:53:49;;;;;;;18.23;9.07;;;;;;;;;;4947420;29;20222;-90
2024/03/22 13:56:55;;;;;;;15.82;9.00;;;;;;;;;;4947982;29;20219;-90
2024/03/22 14:00:03;;;;;;;19.15;9.18;;;;;;;;;;4948445;29;20179;-89
2024/03/22 14:03:27;;;;;;;15.13;8.95;;;;;;;;;;4944885;29;20197;-90
2024/03/22 14:06:31;;;;;;;14.30;9.20;;;;;;;;;;4945262;28;20227;-91
2024/03/22 14:09:36;;;;;;;21.00;9.45;;;;;;;;;;4945181;28;20666;-91
2024/03/22 14:12:43;;;;;;;18.92;9.27;;;;;;;;;;4940877;29;20195;-90
2024/03/22 14:15:48;;;;;;;19.73;9.23;;;;;;;;;;4928823;29;20352;-90
2024/03/22 14:18:53;;;;;;;16.80;9.52;;;;;;;;;;4927813;29;20215;-92
2024/03/22 14:21:57;;;;;;;18.88;10.35;;;;;;;;;;4937859;29;20232;-90
2024/03/22 14:25:03;;;;;;;16.27;8.90;;;;;;;;;;4932281;29;20203;-90
2024/03/22 14:28:10;;;;;;;16.42;9.50;;;;;;;;;;4938988;29;20283;-92
2024/03/22 14:31:15;;;;;;;24.33;13.13;;;;;;;;;;4930737;28;20212;-90
2024/03/22 14:34:19;;;;;;;15.95;9.52;;;;;;;;;;4929932;29;20243;-91
2024/03/22 14:37:25;;;;;;;24.30;9.93;;;;;;;;;;4947847;29;20730;-90
2024/03/22 14:40:31;;;;;;;18.85;9.40;;;;;;;;;;4946270;29;20316;-89
2024/03/22 14:43:40;;;;;;;21.52;11.85;;;;;;;;;;4947539;29;20215;-91
2024/03/22 14:46:46;;;;;;;17.17;9.05;;;;;;;;;;4947299;29;20698;-90
2024/03/22 14:49:51;;;;;;;17.30;8.63;;;;;;;;;;4937143;29;20297;-88
2024/03/22 14:52:56;;;;;;;17.95;9.40;;;;;;;;;;4944284;29;20202;-89
2024/03/22 14:56:04;;;;;;;17.98;8.90;;;;;;;;;;4944026;29;20210;-88
2024/03/22 14:59:10;;;;;;;16.85;9.30;;;;;;;;;;4943783;29;20222;-91
2024/03/22 15:02:14;;;;;;;26.95;12.50;;;;;;;;;;4948347;29;20207;-85
2024/03/22 15:05:19;;;;;;;19.45;10.13;;;;;;;;;;4946609;28;20262;-91
2024/03/22 15:08:23;;;;;;;18.38;9.50;;;;;;;;;;4946872;28;20207;-90
2024/03/22 15:11:28;;;;;;;18.27;9.57;;;;;;;;;;4929286;28;20275;-89
2024/03/22 15:14:34;;;;;;;31.90;13.80;;;;;;;;;;4927680;28;20196;-91
2024/03/22 15:17:40;;;;;;;23.35;10.70;;;;;;;;;;4928084;29;20286;-90
2024/03/22 15:20:44;;;;;;;18.15;9.77;;;;;;;;;;4928972;28;20282;-90
2024/03/22 15:23:50;;;;;;;16.30;9.70;;;;;;;;;;4927758;29;20256;-93
2024/03/22 15:26:55;;;;;;;17.88;9.32;;;;;;;;;;4929187;29;20224;-92
2024/03/22 15:30:02;;;;;;;21.48;10.95;;;;;;;;;;4928082;29;20216;-89
2024/03/22 15:33:07;;;;;;;18.88;9.52;;;;;;;;;;4927988;29;20267;-90
2024/03/22 15:36:12;;;;;;;19.55;9.88;;;;;;;;;;4930825;29;20239;-91
2024/03/22 15:39:19;;;;;;;19.40;9.63;;;;;;;;;;4929430;29;20191;-89
2024/03/22 15:42:23;;;;;;;16.42;9.18;;;;;;;;;;4927956;28;20345;-87
2024/03/22 15:45:32;;;;;;;16.67;9.55;;;;;;;;;;4931119;29;20196;-88
2024/03/22 15:48:36;;;;;;;15.10;9.20;;;;;;;;;;4931894;29;20188;-91
2024/03/22 15:51:42;;;;;;;20.70;9.40;;;;;;;;;;4930318;28;20212;-86
2024/03/22 15:54:46;;;;;;;18.40;9.13;;;;;;;;;;4932702;29;20676;-90
2024/03/22 15:57:55;;;;;;;17.55;9.38;;;;;;;;;;4929732;29;20245;-89
2024/03/22 16:01:01;;;;;;;20.00;9.57;;;;;;;;;;4941516;29;20199;-86
2024/03/22 16:04:11;;;;;;;16.38;9.02;;;;;;;;;;4942032;29;20210;-90
2024/03/22 16:07:16;;;;;;;19.13;9.68;;;;;;;;;;4951550;29;20693;-90
2024/03/22 16:10:21;;;;;;;16.92;9.35;;;;;;;;;;4951831;28;20514;-88
2024/03/22 16:13:26;;;;;;;21.20;10.02;;;;;;;;;;4950722;28;20653;-91
2024/03/22 16:16:33;;;;;;;19.95;10.35;;;;;;;;;;4954940;28;20203;-89
2024/03/22 16:19:38;;;;;;;19.85;10.20;;;;;;;;;;4942928;29;20301;-90
2024/03/22 16:22:43;;;;;;;18.83;10.15;;;;;;;;;;4931147;29;20188;-88
2024/03/22 16:25:48;;;;;;;25.05;10.85;;;;;;;;;;4932732;29;20271;-92
2024/03/22 16:28:53;;;;;;;18.27;9.55;;;;;;;;;;4943994;29;20198;-88
2024/03/22 16:32:01;;;;;;;17.67;9.98;;;;;;;;;;4930293;29;20664;-89
2024/03/22 16:35:07;;;;;;;19.23;9.65;;;;;;;;;;4943776;29;20316;-86
2024/03/22 16:38:12;;;;;;;25.33;10.00;;;;;;;;;;4935133;28;20199;-91
2024/03/22 16:41:17;;;;;;;20.42;10.57;;;;;;;;;;4931982;29;20219;-88
2024/03/22 16:44:21;;;;;;;20.67;10.82;;;;;;;;;;4933160;28;20196;-88
2024/03/22 16:47:28;;;;;;;19.48;9.65;;;;;;;;;;4933844;29;20211;-89
2024/03/22 16:50:32;;;;;;;16.38;9.35;;;;;;;;;;4932377;29;20195;-89
2024/03/22 16:53:38;;;;;;;20.08;10.60;;;;;;;;;;4932596;28;20276;-91
2024/03/22 16:56:44;;;;;;;21.15;10.68;;;;;;;;;;4940625;29;20188;-89
2024/03/22 16:59:48;;;;;;;25.35;14.10;;;;;;;;;;4928546;29;20203;-91
2024/03/22 17:02:56;;;;;;;21.17;10.95;;;;;;;;;;4932679;28;20219;-90
2024/03/22 17:06:00;;;;;;;22.95;10.95;;;;;;;;;;4938867;29;20196;-90
2024/03/22 17:09:06;;;;;;;20.23;10.93;;;;;;;;;;4929988;29;20207;-88
2024/03/22 17:12:11;;;;;;;22.48;10.85;;;;;;;;;;4928605;29;20200;-89
2024/03/22 17:15:15;;;;;;;41.40;14.73;;;;;;;;;;4928326;29;20207;-89
2024/03/22 17:18:22;;;;;;;47.50;16.38;;;;;;;;;;4940508;29;20219;-92
2024/03/22 17:21:28;;;;;;;39.17;15.13;;;;;;;;;;4939483;28;20203;-89
2024/03/22 17:24:32;;;;;;;37.70;15.90;;;;;;;;;;4940501;28;20277;-88
2024/03/22 17:27:37;;;;;;;39.38;14.25;;;;;;;;;;4929178;29;20232;-89
2024/03/22 17:30:45;;;;;;;37.50;14.82;;;;;;;;;;4937438;29;20184;-87
2024/03/22 17:33:53;;;;;;;25.30;11.63;;;;;;;;;;4927772;28;20239;-89
2024/03/22 17:36:57;;;;;;;25.60;12.35;;;;;;;;;;4929288;28;20667;-90
2024/03/22 17:40:02;;;;;;;26.17;13.43;;;;;;;;;;4926285;29;20246;-89
2024/03/22 17:43:08;;;;;;;26.92;12.57;;;;;;;;;;4938757;29;20215;-93
2024/03/22 17:46:12;;;;;;;21.52;11.43;;;;;;;;;;4935310;29;20530;-88
2024/03/22 17:49:21;;;;;;;27.25;13.13;;;;;;;;;;4926987;28;20180;-89
2024/03/22 17:52:25;;;;;;;28.85;14.35;;;;;;;;;;4925434;28;20320;-90
2024/03/22 17:55:31;;;;;;;33.33;16.15;;;;;;;;;;4924321;28;20191;-90
2024/03/22 17:58:35;;;;;;;33.05;16.73;;;;;;;;;;4936755;29;20200;-90
2024/03/22 18:01:40;;;;;;;23.70;11.73;;;;;;;;;;4935842;29;20192;-91
2024/03/22 18:04:47;;;;;;;27.88;12.70;;;;;;;;;;4936737;28;20176;-90
2024/03/22 18:07:51;;;;;;;20.83;10.35;;;;;;;;;;4935180;29;20232;-92
2024/03/22 18:10:57;;;;;;;15.82;8.65;;;;;;;;;;4925749;28;20232;-89
2024/03/22 18:14:02;;;;;;;20.42;9.00;;;;;;;;;;4924593;28;20196;-89
2024/03/22 18:17:06;;;;;;;29.20;11.90;;;;;;;;;;4926017;29;20557;-90
2024/03/22 18:20:18;;;;;;;16.80;9.68;;;;;;;;;;4927147;28;20216;-88
2024/03/22 18:23:24;;;;;;;22.15;9.52;;;;;;;;;;4928702;29;20683;-90
2024/03/22 18:26:28;;;;;;;25.67;10.57;;;;;;;;;;4937066;29;20727;-90
2024/03/22 18:29:38;;;;;;;24.23;10.20;;;;;;;;;;4924488;28;20663;-87
2024/03/22 18:32:43;;;;;;;25.00;10.02;;;;;;;;;;4936886;28;20184;-91
2024/03/22 18:35:49;;;;;;;24.33;9.90;;;;;;;;;;4924273;29;20200;-89
2024/03/22 18:38:53;;;;;;;18.20;10.07;;;;;;;;;;4936180;29;20195;-91
2024/03/22 18:41:58;;;;;;;27.08;13.00;;;;;;;;;;4923351;29;20257;-91
2024/03/22 18:45:04;;;;;;;31.50;15.40;;;;;;;;;;4921940;29;20195;-90
2024/03/22 18:48:08;;;;;;;25.23;13.23;;;;;;;;;;4923023;29;20212;-90
2024/03/22 18:51:15;;;;;;;24.52;12.55;;;;;;;;;;4921466;29;20187;-90
2024/03/22 18:54:20;;;;;;;23.42;12.10;;;;;;;;;;4924422;29;20289;-90
2024/03/22 18:57:24;;;;;;;21.85;10.93;;;;;;;;;;4922999;29;20199;-91
2024/03/22 19:00:29;;;;;;;27.63;12.13;;;;;;;;;;4930936;29;20201;-91
2024/03/22 19:03:34;;;;;;;26.02;12.20;;;;;;;;;;4923779;29;20654;-89
2024/03/22 19:06:41;;;;;;;21.73;10.73;;;;;;;;;;4924466;29;20255;-90
2024/03/22 19:09:46;;;;;;;20.63;11.05;;;;;;;;;;4947838;29;20203;-91
2024/03/22 19:12:52;;;;;;;23.30;11.25;;;;;;;;;;4942932;28;20187;-91
2024/03/22 19:15:58;;;;;;;23.83;12.35;;;;;;;;;;4925275;29;20261;-91
2024/03/22 19:19:03;;;;;;;24.13;12.82;;;;;;;;;;4934471;29;20336;-89
2024/03/22 19:22:12;;;;;;;26.02;12.57;;;;;;;;;;4935599;29;20236;-90
2024/03/22 19:25:18;;;;;;;25.63;13.10;;;;;;;;;;4935285;29;20203;-88
2024/03/22 19:28:24;;;;;;;30.13;15.02;;;;;;;;;;4923049;29;20348;-90
2024/03/22 19:31:29;;;;;;;33.55;13.52;;;;;;;;;;4943975;28;20839;-88
2024/03/22 19:34:34;;;;;;;28.48;13.05;;;;;;;;;;4945069;29;20244;-89
2024/03/22 19:37:39;;;;;;;26.73;12.30;;;;;;;;;;4923774;29;20196;-88
2024/03/22 19:40:44;;;;;;;25.38;12.27;;;;;;;;;;4949145;29;20195;-88
2024/03/22 19:43:48;;;;;;;27.08;12.88;;;;;;;;;;4942059;29;20195;-90
2024/03/22 19:46:53;;;;;;;35.78;14.55;;;;;;;;;;4942526;29;20267;-89
2024/03/22 19:50:01;;;;;;;29.77;14.77;;;;;;;;;;4954706;29;20215;-91
2024/03/22 19:53:08;;;;;;;28.08;13.13;;;;;;;;;;4955324;29;20239;-89
2024/03/22 19:56:12;;;;;;;31.58;13.70;;;;;;;;;;4952812;29;20203;-87
2024/03/22 19:59:19;;;;;;;28.08;13.55;;;;;;;;;;4955505;29;20263;-88
2024/03/22 20:02:23;;;;;;;29.55;13.20;;;;;;;;;;4954982;29;20200;-89
2024/03/22 20:05:29;;;;;;;40.15;14.57;;;;;;;;;;4957287;29;20195;-90
2024/03/22 20:08:35;;;;;;;37.90;15.40;;;;;;;;;;4943510;29;20215;-89
2024/03/22 20:11:41;;;;;;;32.47;14.48;;;;;;;;;;4942680;29;20206;-86
2024/03/22 20:14:45;;;;;;;25.70;13.23;;;;;;;;;;4944052;29;20199;-90
2024/03/22 20:17:52;;;;;;;20.15;11.32;;;;;;;;;;4942105;28;20211;-89
2024/03/22 20:20:57;;;;;;;32.83;12.35;;;;;;;;;;4941632;29;20210;-88
2024/03/22 20:24:03;;;;;;;29.15;13.80;;;;;;;;;;4922552;29;20223;-89
2024/03/22 20:27:08;;;;;;;30.27;12.77;;;;;;;;;;4933180;29;20289;-88
2024/03/22 20:30:14;;;;;;;27.40;12.75;;;;;;;;;;4934487;29;20534;-90
2024/03/22 20:33:20;;;;;;;42.67;18.42;;;;;;;;;;4945571;28;20174;-88
2024/03/22 20:36:23;;;;;;;29.90;13.07;;;;;;;;;;4950277;29;20187;-89
2024/03/22 20:39:30;;;;;;;24.73;11.35;;;;;;;;;;4947005;28;20244;-90
2024/03/22 20:42:36;;;;;;;28.33;13.20;;;;;;;;;;4945757;29;20218;-88
2024/03/22 20:45:43;;;;;;;28.98;13.48;;;;;;;;;;4926933;29;20252;-88
2024/03/22 20:48:49;;;;;;;27.27;12.35;;;;;;;;;;4944069;29;20211;-87
2024/03/22 20:51:57;;;;;;;26.23;12.55;;;;;;;;;;4942623;29;20236;-87
2024/03/22 20:55:04;;;;;;;26.23;13.48;;;;;;;;;;4941095;29;20321;-88
2024/03/22 20:58:10;;;;;;;28.08;12.63;;;;;;;;;;4938673;29;20710;-92
2024/03/22 21:01:18;;;;;;;22.05;11.07;;;;;;;;;;4944059;29;20276;-90
2024/03/22 21:04:24;;;;;;;23.02;11.82;;;;;;;;;;4944430;29;20195;-90
2024/03/22 21:07:29;;;;;;;32.47;12.60;;;;;;;;;;4943742;28;20821;-91
2024/03/22 21:10:36;;;;;;;24.33;12.07;;;;;;;;;;4944542;29;20288;-89
2024/03/22 21:13:40;;;;;;;28.98;12.10;;;;;;;;;;4944261;29;20219;-91
2024/03/22 21:16:48;;;;;;;27.75;12.30;;;;;;;;;;4944685;29;20195;-91
2024/03/22 21:19:53;;;;;;;22.60;10.90;;;;;;;;;;4944411;29;20231;-88
2024/03/22 21:23:00;;;;;;;34.17;16.05;;;;;;;;;;4944416;29;20191;-90